Time;durP1;ratioP1;P1;durP2;ratioP2;P2;SDS_P1;SDS_P2;PMS_P1;PMS_P2;Temp;Humidity;BMP_temperature;BMP_pressure;BME280_temperature;BME280_humidity;BME280_pressure;Samples;Min_cycle;Max_cycle;Signal;HPM_P1;HPM_P2
2022/07/13 00:05:06;;;;;;;;;4.67;3.33;;;;;27.37;28.44;101363.56;4852352;29;45400;-85
2022/07/13 00:07:35;;;;;;;;;8.00;5.00;;;;;27.36;28.23;101366.38;4857480;29;45710;-85
2022/07/13 00:10:04;;;;;;;;;4.33;4.33;;;;;27.33;28.71;101362.81;4857491;29;44766;-85
2022/07/13 00:12:30;;;;;;;;;6.00;5.00;;;;;27.28;28.20;101359.41;4857200;29;45465;-86
2022/07/13 00:14:55;;;;;;;;;4.00;4.00;;;;;27.24;28.21;101360.50;4871005;29;44933;-85
2022/07/13 00:17:22;;;;;;;;;5.00;3.67;;;;;27.22;28.71;101365.13;4854703;29;47246;-85
2022/07/13 00:19:47;;;;;;;;;4.67;4.00;;;;;27.13;28.29;101349.16;4869578;29;45137;-85
2022/07/13 00:22:12;;;;;;;;;4.33;4.33;;;;;27.16;28.29;101365.38;4856942;29;44869;-85
2022/07/13 00:24:38;;;;;;;;;6.00;6.00;;;;;27.12;28.37;101356.44;4854544;29;45348;-85
2022/07/13 00:27:41;;;;;;;;;6.00;4.33;;;;;27.10;28.13;101360.22;4855170;29;45424;-85
2022/07/13 00:30:07;;;;;;;;;4.00;4.00;;;;;27.02;28.68;101355.09;4870218;29;45351;-85
2022/07/13 00:32:33;;;;;;;;;5.33;5.33;;;;;27.02;28.63;101359.66;4854440;29;45197;-85
2022/07/13 00:34:58;;;;;;;;;4.00;4.00;;;;;27.02;28.69;101357.81;4870998;29;45433;-86
2022/07/13 00:37:24;;;;;;;;;3.00;3.00;;;;;26.94;28.46;101347.28;4856425;29;45434;-85
2022/07/13 00:39:49;;;;;;;;;5.33;4.00;;;;;26.98;28.66;101345.25;4855812;29;45434;-84
2022/07/13 00:42:14;;;;;;;;;6.33;5.33;;;;;26.95;28.26;101339.97;4872101;29;44950;-85
2022/07/13 00:44:40;;;;;;;;;3.00;3.00;;;;;26.92;28.19;101343.72;4869835;29;45418;-86
2022/07/13 00:47:06;;;;;;;;;4.00;4.00;;;;;26.84;28.55;101325.91;4870562;29;46957;-84
2022/07/13 00:49:32;;;;;;;;;4.67;3.67;;;;;26.84;28.37;101324.03;4856233;29;45428;-86
2022/07/13 00:51:57;;;;;;;;;4.00;4.00;;;;;26.86;28.40;101338.50;4854440;29;45444;-85
2022/07/13 00:54:30;;;;;;;;;3.00;3.00;;;;;26.85;28.73;101338.59;4855632;29;45423;-84
2022/07/13 00:56:58;;;;;;;;;4.67;4.67;;;;;26.80;29.03;101332.44;4870325;29;47268;-85
2022/07/13 00:59:24;;;;;;;;;2.33;2.33;;;;;26.72;28.67;101327.31;4854799;29;45564;-84
2022/07/13 01:01:50;;;;;;;;;4.00;3.67;;;;;26.76;28.92;101331.69;4856017;29;45391;-85
2022/07/13 01:08:30;;;;;;;;;5.67;5.00;;;;;26.71;29.54;101325.56;4838924;29;45436;-85
2022/07/13 01:10:57;;;;;;;;;5.67;4.67;;;;;26.69;28.97;101330.19;4838027;29;45476;-85
2022/07/13 01:13:25;;;;;;;;;5.00;4.00;;;;;26.68;29.72;101333.88;4841718;29;45422;-85
2022/07/13 01:15:50;;;;;;;;;7.33;5.67;;;;;26.65;29.31;101336.75;4840227;29;45469;-85
2022/07/13 01:18:17;;;;;;;;;5.67;5.00;;;;;26.66;29.56;101341.22;4840710;29;45454;-84
2022/07/13 01:20:42;;;;;;;;;6.00;4.33;;;;;26.59;29.71;101324.25;4837243;29;45190;-85
2022/07/13 01:23:12;;;;;;;;;6.33;6.33;;;;;26.57;29.94;101327.97;4853385;29;45462;-86
2022/07/13 01:25:39;;;;;;;;;6.00;5.33;;;;;26.55;29.78;101330.75;4840120;29;45312;-85
2022/07/13 01:28:05;;;;;;;;;5.00;5.00;;;;;26.58;30.20;101344.28;4854328;29;48290;-84
2022/07/13 01:30:32;;;;;;;;;4.00;4.00;;;;;26.58;29.55;101335.22;4836918;29;45472;-86
2022/07/13 01:32:57;;;;;;;;;5.00;4.33;;;;;26.54;30.18;101326.25;4839015;29;45413;-85
2022/07/13 01:35:24;;;;;;;;;5.00;5.00;;;;;26.58;29.92;101337.94;4838882;29;45522;-85
2022/07/13 01:37:50;;;;;;;;;5.33;5.33;;;;;26.49;30.07;101315.53;4839638;29;46990;-85
2022/07/13 01:40:16;;;;;;;;;6.33;5.33;;;;;26.64;29.85;101337.69;4840345;29;45389;-85
2022/07/13 01:42:52;;;;;;;;;5.67;5.67;;;;;26.61;29.94;101327.81;4838217;29;45321;-85
2022/07/13 01:45:20;;;;;;;;;6.00;5.00;;;;;26.57;30.39;101314.34;4840067;29;45438;-85
2022/07/13 01:47:50;;;;;;;;;5.00;5.00;;;;;26.66;30.29;101319.41;4840251;29;46093;-84
2022/07/13 01:50:17;;;;;;;;;5.67;5.00;;;;;26.65;30.45;101317.66;4838961;29;45450;-85
2022/07/13 01:52:43;;;;;;;;;7.00;5.33;;;;;26.67;30.20;101326.66;4854697;29;45334;-85
2022/07/13 01:55:11;;;;;;;;;4.33;4.33;;;;;26.66;30.21;101322.13;4855282;29;45553;-84
2022/07/13 01:57:37;;;;;;;;;5.00;5.00;;;;;26.63;30.48;101314.97;4838982;29;45486;-85
2022/07/13 02:00:15;;;;;;;;;4.00;4.00;;;;;26.65;30.48;101313.06;4853114;29;45479;-85
2022/07/13 02:02:41;;;;;;;;;5.67;5.00;;;;;26.62;30.68;101312.31;4839408;29;45412;-86
2022/07/13 02:05:11;;;;;;;;;6.00;3.00;;;;;26.66;30.33;101313.94;4854822;29;44990;-85
2022/07/13 02:07:37;;;;;;;;;6.00;6.00;;;;;26.68;31.12;101312.03;4868345;29;47244;-85
2022/07/13 02:10:05;;;;;;;;;6.33;6.33;;;;;26.62;31.09;101302.31;4858080;29;44845;-85
2022/07/13 02:12:30;;;;;;;;;4.67;4.67;;;;;26.67;30.76;101308.44;4859392;29;45414;-85
2022/07/13 02:14:56;;;;;;;;;4.33;4.33;;;;;26.64;31.11;101300.41;4859661;29;45410;-85
2022/07/13 02:17:21;;;;;;;;;6.00;6.00;;;;;26.65;31.43;101296.69;4874328;29;46761;-85
2022/07/13 02:19:47;;;;;;;;;4.00;4.00;;;;;26.59;31.38;101296.97;4873407;29;45349;-85
2022/07/13 02:22:12;;;;;;;;;6.33;6.33;;;;;26.61;31.54;101307.81;4859276;29;45427;-84
2022/07/13 02:24:38;;;;;;;;;7.67;7.00;;;;;26.55;31.67;101300.75;4858130;29;45339;-84
2022/07/13 02:27:03;;;;;;;;;5.33;5.33;;;;;26.50;31.46;101276.41;4857976;29;45935;-86
2022/07/13 02:29:29;;;;;;;;;6.00;6.00;;;;;26.55;31.67;101290.72;4857714;29;45268;-84
2022/07/13 02:31:55;;;;;;;;;5.67;5.67;;;;;26.53;31.48;101292.63;4855926;29;44737;-84
2022/07/13 02:34:23;;;;;;;;;8.33;7.67;;;;;26.45;31.26;101272.13;4872089;29;45351;-86
2022/07/13 02:37:45;;;;;;;;;5.33;5.33;;;;;26.53;31.79;101287.19;4872377;29;47042;-85
2022/07/13 02:40:14;;;;;;;;;5.33;5.33;;;;;26.53;31.57;101297.22;4872679;29;45763;-86
2022/07/13 02:42:40;;;;;;;;;5.33;4.67;;;;;26.49;31.61;101285.53;4856459;29;45492;-84
2022/07/13 02:45:07;;;;;;;;;8.33;6.67;;;;;26.46;31.53;101280.25;4856645;29;45440;-85
2022/07/13 02:47:33;;;;;;;;;6.00;5.33;;;;;26.45;31.87;101280.28;4871031;29;47482;-85
2022/07/13 02:49:59;;;;;;;;;6.33;6.33;;;;;26.47;31.50;101297.47;4871221;29;45916;-85
2022/07/13 02:52:25;;;;;;;;;4.33;4.33;;;;;26.39;31.19;101281.44;4856447;29;45384;-85
2022/07/13 02:54:51;;;;;;;;;7.00;5.33;;;;;26.42;31.32;101289.50;4870353;29;45424;-85
2022/07/13 02:57:20;;;;;;;;;7.00;6.33;;;;;26.41;31.74;101293.16;4855643;29;45674;-84
2022/07/13 02:59:45;;;;;;;;;3.33;3.33;;;;;26.36;31.08;101278.88;4869469;29;45632;-85
2022/07/13 03:02:11;;;;;;;;;6.00;6.00;;;;;26.40;31.72;101294.13;4856073;29;44909;-84
2022/07/13 03:04:38;;;;;;;;;4.33;4.33;;;;;26.41;31.10;101290.44;4855433;29;44786;-85
2022/07/13 03:07:03;;;;;;;;;5.33;5.33;;;;;26.45;31.38;101297.53;4856401;29;45467;-85
2022/07/13 03:09:32;;;;;;;;;6.00;6.00;;;;;26.44;31.60;101292.13;4870693;29;45385;-85
2022/07/13 03:11:57;;;;;;;;;4.00;4.00;;;;;26.46;31.26;101302.06;4857221;29;45501;-85
2022/07/13 03:14:22;;;;;;;;;4.00;4.00;;;;;26.35;31.29;101283.41;4855764;29;45427;-84
2022/07/13 03:16:49;;;;;;;;;5.00;4.67;;;;;26.36;31.19;101284.31;4856008;29;46530;-85
2022/07/13 03:19:14;;;;;;;;;7.00;5.67;;;;;26.40;31.39;101296.88;4871673;29;45368;-85
2022/07/13 03:21:39;;;;;;;;;6.33;5.33;;;;;26.36;31.48;101284.31;4869432;29;45576;-86
2022/07/13 03:24:05;;;;;;;;;4.67;4.67;;;;;26.43;31.64;101302.16;4854025;29;44831;-86
2022/07/13 03:26:32;;;;;;;;;5.67;5.67;;;;;26.39;31.13;101289.63;4855361;29;45402;-86
2022/07/13 03:29:00;;;;;;;;;7.00;6.00;;;;;26.37;30.91;101285.19;4854593;29;44820;-85
2022/07/13 03:31:26;;;;;;;;;4.33;4.33;;;;;26.36;31.35;101281.59;4854679;29;44697;-85
2022/07/13 03:33:53;;;;;;;;;6.00;6.00;;;;;26.38;31.22;101287.88;4854647;29;45433;-84
2022/07/13 03:36:18;;;;;;;;;7.67;5.67;;;;;26.40;31.11;101295.97;4856078;29;45355;-84
2022/07/13 03:42:09;;;;;;;;;6.33;5.00;;;;;26.33;31.63;101295.34;4856185;29;45475;-86
2022/07/13 03:44:36;;;;;;;;;6.00;5.33;;;;;26.30;31.29;101290.03;4871797;29;45409;-85
2022/07/13 03:47:02;;;;;;;;;7.00;5.33;;;;;26.28;31.05;101291.94;4857522;29;46559;-84
2022/07/13 03:49:27;;;;;;;;;4.33;4.33;;;;;26.26;31.22;101291.13;4856529;29;45335;-86
2022/07/13 03:51:54;;;;;;;;;7.00;5.67;;;;;26.30;30.94;101301.81;4857270;29;45404;-86
2022/07/13 03:54:20;;;;;;;;;5.00;5.00;;;;;26.30;31.05;101301.81;4858581;29;45444;-86
2022/07/13 03:56:48;;;;;;;;;6.67;6.33;;;;;26.28;31.32;101302.84;4871385;29;45576;-85
2022/07/13 03:59:14;;;;;;;;;7.33;5.67;;;;;26.31;31.41;101303.59;4870859;29;45486;-84
2022/07/13 04:01:40;;;;;;;;;6.00;6.00;;;;;26.25;31.50;101290.22;4854889;29;45382;-84
2022/07/13 04:04:06;;;;;;;;;6.67;5.67;;;;;26.25;31.27;101292.94;4856651;29;45580;-86
2022/07/13 04:06:32;;;;;;;;;6.00;6.00;;;;;26.31;31.49;101299.97;4867587;29;47055;-85
2022/07/13 04:08:59;;;;;;;;;6.33;6.00;;;;;26.29;32.07;101301.88;4855404;29;45480;-84
2022/07/13 04:11:25;;;;;;;;;5.00;5.00;;;;;26.34;31.77;101308.03;4853209;29;45404;-85
2022/07/13 04:14:41;;;;;;;;;5.67;5.67;;;;;26.36;31.47;101306.13;4868903;29;45453;-85
2022/07/13 04:17:07;;;;;;;;;5.67;5.67;;;;;26.21;31.87;101276.78;4869624;29;46751;-85
2022/07/13 04:19:32;;;;;;;;;3.67;3.67;;;;;26.37;31.48;101298.84;4852851;29;45369;-86
2022/07/13 04:21:57;;;;;;;;;7.00;4.67;;;;;26.31;31.54;101295.41;4856140;29;45629;-86
2022/07/13 04:24:23;;;;;;;;;4.67;4.67;;;;;26.40;31.87;101302.31;4857076;29;44746;-85
2022/07/13 04:26:49;;;;;;;;;8.00;6.67;;;;;26.29;32.13;101274.63;4856408;29;45484;-85
2022/07/13 04:29:15;;;;;;;;;5.00;3.33;;;;;26.40;31.85;101296.88;4870933;29;45882;-86
2022/07/13 04:31:40;;;;;;;;;6.67;6.33;;;;;26.38;31.69;101289.69;4855011;29;45409;-85
2022/07/13 04:34:05;;;;;;;;;6.33;6.33;;;;;26.37;31.89;101288.81;4856879;29;45544;-85
2022/07/13 04:36:34;;;;;;;;;6.00;6.00;;;;;26.39;31.99;101295.06;4857266;29;45447;-84
2022/07/13 04:39:43;;;;;;;;;7.33;5.00;;;;;26.42;31.95;101294.97;4855177;29;44755;-86
2022/07/13 04:42:11;;;;;;;;;5.33;5.33;;;;;26.43;31.94;101288.53;4870239;29;44811;-85
2022/07/13 04:44:36;;;;;;;;;6.33;5.67;;;;;26.40;31.68;101283.22;4870775;29;45571;-84
2022/07/13 04:47:02;;;;;;;;;5.67;5.67;;;;;26.44;31.71;101292.13;4859387;29;45408;-85
2022/07/13 04:49:31;;;;;;;;;6.33;6.33;;;;;26.45;31.88;101288.47;4844856;29;45342;-85
2022/07/13 04:51:59;;;;;;;;;6.33;4.33;;;;;26.42;31.91;101283.13;4858813;29;45426;-84
2022/07/13 04:54:24;;;;;;;;;6.67;6.33;;;;;26.37;32.25;101264.25;4861044;29;45383;-85
2022/07/13 04:56:53;;;;;;;;;5.33;5.33;;;;;26.34;31.86;101265.28;4874441;29;46771;-86
2022/07/13 04:59:18;;;;;;;;;7.67;7.00;;;;;26.38;31.66;101274.22;4858026;29;45395;-85
2022/07/13 05:01:44;;;;;;;;;8.00;7.00;;;;;26.50;32.15;101287.31;4857400;29;45411;-85
2022/07/13 05:04:09;;;;;;;;;7.67;6.67;;;;;26.52;32.23;101282.69;4858737;29;45473;-87
2022/07/13 05:06:35;;;;;;;;;8.00;8.00;;;;;26.58;31.95;101283.41;4859404;29;45480;-85
2022/07/13 05:09:07;;;;;;;;;5.67;5.67;;;;;26.62;31.99;101282.31;4861341;29;45401;-87
2022/07/13 05:11:32;;;;;;;;;7.33;7.33;;;;;26.59;32.43;101277.00;4860511;29;45732;-84
2022/07/13 05:13:58;;;;;;;;;4.33;4.33;;;;;26.60;32.08;101285.13;4857896;29;45742;-85
2022/07/13 05:16:24;;;;;;;;;5.67;5.67;;;;;26.58;32.10;101277.94;4859619;29;45260;-85
2022/07/13 05:18:50;;;;;;;;;5.00;5.00;;;;;26.59;32.15;101279.72;4858300;29;44974;-86
2022/07/13 05:21:15;;;;;;;;;5.33;4.33;;;;;26.53;32.41;101270.81;4874440;29;45412;-85
2022/07/13 05:23:41;;;;;;;;;5.33;5.00;;;;;26.58;32.90;101289.72;4873442;29;45381;-86
2022/07/13 05:26:07;;;;;;;;;3.00;3.00;;;;;26.55;32.66;101288.00;4859227;29;46640;-85
2022/07/13 05:28:36;;;;;;;;;4.67;4.67;;;;;26.41;33.02;101265.91;4859944;29;44832;-92
2022/07/13 05:31:08;;;;;;;;;9.00;7.67;;;;;26.31;33.14;101256.34;4859170;29;44790;-91
2022/07/13 05:33:54;;;;;;;;;5.00;5.00;;;;;26.49;33.27;101290.13;4861841;29;45578;-93
2022/07/13 05:36:20;;;;;;;;;7.00;6.33;;;;;26.46;33.24;101290.22;4874215;29;46882;-86
2022/07/13 05:42:09;;;;;;;;;7.67;7.00;;;;;26.44;33.18;101281.22;4858223;29;45322;-85
2022/07/13 05:44:35;;;;;;;;;5.67;5.67;;;;;26.62;33.48;101298.66;4860387;29;45422;-85
2022/07/13 05:47:00;;;;;;;;;6.67;6.67;;;;;26.53;33.07;101281.72;4857476;29;45383;-86
2022/07/13 05:49:26;;;;;;;;;7.00;6.67;;;;;26.72;33.54;101300.94;4872987;29;44851;-86
2022/07/13 05:51:53;;;;;;;;;6.33;5.33;;;;;26.81;33.64;101316.00;4872501;29;45412;-85
2022/07/13 05:54:20;;;;;;;;;7.00;7.00;;;;;26.84;33.01;101318.59;4858034;29;45336;-85
2022/07/13 05:56:46;;;;;;;;;5.33;5.33;;;;;26.84;33.21;101307.66;4858289;29;45520;-87
2022/07/13 05:59:11;;;;;;;;;4.00;4.00;;;;;26.93;32.86;101318.19;4858569;29;45436;-86
2022/07/13 06:01:37;;;;;;;;;6.00;6.00;;;;;26.97;32.81;101318.06;4856475;29;45349;-86
2022/07/13 06:04:03;;;;;;;;;7.33;6.00;;;;;27.04;32.93;101319.53;4859004;29;45593;-85
2022/07/13 06:06:28;;;;;;;;;6.00;6.00;;;;;27.06;32.98;101312.16;4858294;29;45104;-85
2022/07/13 06:08:54;;;;;;;;;4.67;4.67;;;;;27.11;32.27;101311.00;4855728;29;44864;-84
2022/07/13 06:11:19;;;;;;;;;8.67;6.00;;;;;27.21;32.51;101316.94;4855281;29;45536;-85
2022/07/13 06:13:45;;;;;;;;;6.33;5.33;;;;;27.26;32.05;101324.94;4871875;29;45414;-84
2022/07/13 06:16:16;;;;;;;;;9.00;8.33;;;;;27.33;32.13;101319.13;4859107;29;44896;-85
2022/07/13 06:18:42;;;;;;;;;7.67;6.33;;;;;27.39;32.71;101308.84;4855951;29;45500;-85
2022/07/13 06:21:08;;;;;;;;;6.33;4.33;;;;;27.49;32.33;101310.19;4856789;29;45463;-86
2022/07/13 06:23:33;;;;;;;;;6.33;6.33;;;;;27.60;32.43;101316.03;4856983;29;45529;-87
2022/07/13 06:25:59;;;;;;;;;6.00;6.00;;;;;27.63;31.84;101321.38;4858234;29;46199;-86
2022/07/13 06:28:24;;;;;;;;;10.33;7.33;;;;;27.64;32.06;101309.44;4857806;29;45443;-86
2022/07/13 06:30:51;;;;;;;;;8.33;6.33;;;;;27.72;31.69;101314.56;4858501;29;44823;-86
2022/07/13 06:33:29;;;;;;;;;6.67;6.67;;;;;27.80;31.65;101316.91;4870760;29;44889;-85
2022/07/13 06:35:55;;;;;;;;;6.33;6.33;;;;;27.77;31.61;101303.38;4869760;29;47567;-86
2022/07/13 06:38:20;;;;;;;;;5.00;5.00;;;;;27.84;31.21;101300.28;4857317;29;44969;-86
2022/07/13 06:40:47;;;;;;;;;6.00;5.33;;;;;28.02;31.92;101316.78;4855784;29;45369;-85
2022/07/13 06:43:14;;;;;;;;;5.00;5.00;;;;;28.07;31.69;101312.81;4857548;29;45410;-86
2022/07/13 06:45:46;;;;;;;;;6.00;6.00;;;;;28.07;31.55;101312.81;4842250;29;47596;-87
2022/07/13 06:48:12;;;;;;;;;8.33;7.33;;;;;28.10;31.71;101311.81;4856278;29;44830;-87
2022/07/13 06:50:38;;;;;;;;;7.00;6.00;;;;;28.15;30.68;101314.31;4872388;29;44841;-85
2022/07/13 06:53:47;;;;;;;;;7.67;7.67;;;;;28.29;30.55;101314.50;4854029;29;45513;-87
2022/07/13 06:56:12;;;;;;;;;6.33;6.33;;;;;28.28;30.96;101299.06;4853624;29;47227;-85
2022/07/13 06:58:38;;;;;;;;;6.33;6.33;;;;;28.38;30.53;101319.50;4854852;29;45429;-86
2022/07/13 07:01:04;;;;;;;;;6.00;5.33;;;;;28.37;31.03;101314.97;4856373;29;45351;-85
2022/07/13 07:03:49;;;;;;;;;5.00;5.00;;;;;28.41;30.64;101310.25;4887344;23;45027;-84
2022/07/13 07:06:38;;;;;;;;;7.00;7.00;;;;;28.32;30.84;101292.47;4910168;29;45093;-84
2022/07/13 07:09:06;;;;;;;;;8.00;5.00;;;;;28.69;30.94;101329.75;4910712;28;44864;-84
2022/07/13 07:11:38;;;;;;;;;8.33;6.00;;;;;28.63;30.15;101288.16;4893098;29;45109;-84
2022/07/13 07:14:36;;;;;;;;;;;;;;;;;;;;;
2022/07/13 07:24:45;;;;;;;;;4.67;4.67;;;;;29.32;28.97;101326.38;4803799;29;44872;-87
2022/07/13 07:27:25;;;;;;;;;7.67;7.00;;;;;29.21;29.02;101323.38;4814129;29;45493;-87
2022/07/13 07:30:35;;;;;;;;;3.33;3.33;;;;;29.21;29.37;101334.34;4815064;29;46888;-85
2022/07/13 07:33:33;;;;;;;;;;;;;;;;;;;;;
2022/07/13 07:42:25;;;;;;;;;4.33;4.33;;;;;29.14;30.13;101310.09;4804732;29;45105;-84
2022/07/13 07:44:53;;;;;;;;;4.00;4.00;;;;;29.38;29.81;101335.25;4901195;28;45508;-85
2022/07/13 07:47:41;;;;;;;;;7.00;7.00;;;;;29.33;29.76;101308.13;4908591;29;45394;-84
2022/07/13 07:50:28;;;;;;;;;4.33;4.00;;;;;29.37;29.45;101285.06;4910509;29;45548;-86
2022/07/13 07:53:16;;;;;;;;;5.33;4.00;;;;;29.64;29.17;101311.88;4907452;29;45464;-84
2022/07/13 07:55:41;;;;;;;;;5.33;5.33;;;;;29.73;29.31;101318.69;4908576;29;45428;-83
2022/07/13 07:58:17;;;;;;;;;5.67;5.67;;;;;29.77;29.27;101306.59;4929074;28;44765;-85
2022/07/13 08:00:46;;;;;;;;;4.67;4.67;;;;;29.80;28.75;101293.59;4912995;29;44850;-85
2022/07/13 08:03:12;;;;;;;;;3.67;3.67;;;;;29.75;28.84;101290.22;4907318;29;46971;-84
2022/07/13 08:05:44;;;;;;;;;4.00;4.00;;;;;29.80;28.97;101310.03;4902220;29;45541;-84
2022/07/13 08:08:29;;;;;;;;;5.00;4.00;;;;;29.86;28.82;101330.75;4891388;29;45378;-84
2022/07/13 08:11:03;;;;;;;;;5.33;5.33;;;;;29.73;28.99;101318.69;4888608;29;45327;-83
2022/07/13 08:13:30;;;;;;;;;7.00;5.67;;;;;29.75;29.10;101322.25;4890741;29;45368;-85
2022/07/13 08:15:55;;;;;;;;;4.67;4.67;;;;;29.80;28.99;101326.50;4892613;29;45901;-85
2022/07/13 08:18:53;;;;;;;;;5.67;5.67;;;;;29.53;28.74;101279.56;4893368;29;45458;-83
2022/07/13 08:21:19;;;;;;;;;3.67;3.67;;;;;29.62;29.25;101311.94;4893533;29;44832;-83
2022/07/13 08:24:07;;;;;;;;;4.67;4.67;;;;;29.74;29.13;101288.47;4911096;29;45314;-85
2022/07/13 08:26:36;;;;;;;;;6.67;6.00;;;;;29.81;29.01;101287.13;4899230;28;44833;-83
2022/07/13 08:29:22;;;;;;;;;7.33;5.67;;;;;30.02;29.05;101323.41;4884991;29;45596;-84
2022/07/13 08:41:34;;;;;;;;;5.00;5.00;;;;;30.39;29.28;101315.75;4839312;29;45395;-81
2022/07/13 08:44:27;;;;;;;;;;;;;;;;;;;;;
2022/07/13 08:47:05;;;;;;;;;5.00;5.00;;;;;30.66;28.67;101282.09;4824951;29;74546;-83
2022/07/13 08:50:01;;;;;;;;;5.00;5.00;;;;;30.88;28.47;101300.91;4822026;29;44877;-83
2022/07/13 08:53:06;;;;;;;;;;;;;;;;;;;;;
2022/07/13 08:56:00;;;;;;;;;7.00;6.67;;;;;30.96;28.38;101297.69;4798276;29;67445;-84
2022/07/13 08:58:26;;;;;;;;;4.00;4.00;;;;;31.05;27.64;101291.63;4782564;29;47113;-83
2022/07/13 09:01:12;;;;;;;;;;;;;;;;;;;;;
2022/07/13 09:03:43;;;;;;;;;6.00;4.33;;;;;31.17;27.10;101276.19;4857359;29;67561;-83
2022/07/13 09:13:12;;;;;;;;;5.33;4.67;;;;;31.47;26.53;101287.09;4790029;29;45548;-85
2022/07/13 09:19:14;;;;;;;;;3.67;3.67;;;;;31.45;25.94;101248.75;4800498;29;45045;-85
2022/07/13 09:22:27;;;;;;;;;5.00;5.00;;;;;31.83;26.08;101293.91;4789950;29;45598;-85
2022/07/13 09:25:00;;;;;;;;;4.67;4.67;;;;;31.68;25.96;101258.19;4803810;29;45430;-84
2022/07/13 09:28:05;;;;;;;;;7.33;7.33;;;;;31.92;25.71;101298.81;4785341;29;45363;-85
2022/07/13 09:34:18;;;;;;;;;4.00;4.00;;;;;31.86;24.90;101258.84;4839937;29;45462;-84
2022/07/13 09:40:47;;;;;;;;;;;;;;;;;;;;;
2022/07/13 09:56:39;;;;;;;;;4.00;2.00;;;;;32.25;24.43;101253.50;4844163;29;44953;-85
2022/07/13 09:59:27;;;;;;;;;7.00;4.33;;;;;32.40;24.00;101271.72;4848989;29;46142;-85
2022/07/13 10:05:21;;;;;;;;;3.33;3.33;;;;;32.43;24.31;101268.72;4832524;29;45512;-84
2022/07/13 10:08:26;;;;;;;;;;;;;;;;;;;;;
2022/07/13 10:11:08;;;;;;;;;5.33;5.33;;;;;32.24;24.30;101238.84;4812898;29;75221;-84
2022/07/13 10:13:54;;;;;;;;;2.00;2.00;;;;;32.30;23.84;101245.81;4884198;29;44714;-85
2022/07/13 10:17:30;;;;;;;;;4.67;3.67;;;;;32.48;23.97;101272.06;4895320;29;45525;-86
2022/07/13 10:19:56;;;;;;;;;4.00;2.00;;;;;32.46;24.18;101279.53;4887038;29;45826;-86
2022/07/13 10:22:45;;;;;;;;;4.67;4.00;;;;;32.32;24.02;101259.44;4897108;29;45323;-85
2022/07/13 10:29:30;;;;;;;;;;;;;;;;;;;;;
2022/07/13 10:32:19;;;;;;;;;5.00;4.00;;;;;32.08;24.11;101247.28;4898575;29;45623;-84
2022/07/13 10:35:07;;;;;;;;;4.00;4.00;;;;;32.32;24.43;101273.22;4873224;29;45573;-84
2022/07/13 10:38:01;;;;;;;;;3.67;3.67;;;;;32.44;24.26;101270.50;4889780;29;45543;-84
2022/07/13 10:40:55;;;;;;;;;5.67;4.00;;;;;32.25;24.54;101242.47;4892058;29;45473;-83
2022/07/13 10:43:21;;;;;;;;;4.00;4.00;;;;;32.24;24.90;101240.75;4894563;29;45153;-85
2022/07/13 10:49:36;;;;;;;;;4.00;3.67;;;;;32.59;24.28;101273.22;4891922;29;45764;-83
2022/07/13 10:55:35;;;;;;;;;2.00;2.00;;;;;32.75;24.62;101279.38;4897223;29;45030;-85
2022/07/13 10:58:34;;;;;;;;;4.00;4.00;;;;;32.82;24.22;101283.47;4880006;29;45331;-83
2022/07/13 11:01:54;;;;;;;;;;;;;;;;;;;;;
2022/07/13 11:04:47;;;;;;;;;4.67;4.67;;;;;32.57;24.32;101247.66;4886519;29;68170;-85
2022/07/13 11:07:12;;;;;;;;;5.33;4.33;;;;;32.73;24.48;101275.00;4911676;29;45548;-83
2022/07/13 11:09:48;;;;;;;;;4.67;4.67;;;;;32.68;24.98;101256.00;4883313;29;45592;-86
2022/07/13 11:12:35;;;;;;;;;3.67;3.67;;;;;32.94;25.06;101269.81;4894928;28;45568;-84
2022/07/13 11:15:19;;;;;;;;;4.00;4.00;;;;;33.03;25.07;101271.91;4889360;29;45514;-82
2022/07/13 11:17:52;;;;;;;;;5.67;5.67;;;;;33.04;24.97;101255.25;4893395;29;46441;-85
2022/07/13 11:20:45;;;;;;;;;3.00;3.00;;;;;32.97;24.75;101229.13;4895094;29;46537;-85
2022/07/13 11:27:04;;;;;;;;;4.00;4.00;;;;;33.30;25.46;101257.13;4882447;29;44738;-84
2022/07/13 11:30:10;;;;;;;;;34.67;32.00;;;;;33.33;24.46;101262.41;4882686;29;44894;-84
2022/07/13 11:32:42;;;;;;;;;6.00;6.00;;;;;33.32;25.06;101249.63;4891540;29;45385;-85
2022/07/13 11:38:22;;;;;;;;;;;;;;;;;;;;;
2022/07/13 11:40:54;;;;;;;;;5.00;4.67;;;;;33.45;24.15;101239.44;4911878;28;65099;-85
2022/07/13 11:43:45;;;;;;;;;5.33;5.33;;;;;33.37;24.24;101225.34;4910220;29;45433;-83
2022/07/13 11:46:45;;;;;;;;;5.00;5.00;;;;;33.26;24.35;101206.84;4917627;28;45328;-87
2022/07/13 11:53:35;;;;;;;;;3.00;3.00;;;;;33.56;24.87;101224.84;4876701;29;45470;-83
2022/07/13 11:56:06;;;;;;;;;5.00;5.00;;;;;33.51;24.64;101216.94;4873649;28;45560;-84
2022/07/13 11:58:56;;;;;;;;;7.00;6.67;;;;;33.56;24.91;101198.16;4861274;29;45492;-82
2022/07/13 12:01:51;;;;;;;;;6.00;6.00;;;;;33.85;24.04;101230.94;4875297;29;45076;-82
2022/07/13 12:04:29;;;;;;;;;3.33;3.33;;;;;33.79;24.04;101207.44;4773840;29;45382;-83
2022/07/13 12:07:33;;;;;;;;;4.00;4.00;;;;;33.93;24.08;101222.94;4764929;29;45406;-82
2022/07/13 12:13:16;;;;;;;;;5.67;5.33;;;;;33.79;24.32;101181.75;4739937;30;44777;-83
2022/07/13 12:22:57;;;;;;;;;5.00;5.00;;;;;34.19;23.91;101209.91;4734289;30;44854;-82
2022/07/13 12:25:48;;;;;;;;;1.00;1.00;;;;;34.18;23.91;101210.06;4729131;30;44948;-82
2022/07/13 12:28:38;;;;;;;;;4.00;4.00;;;;;34.16;23.45;101201.03;4745293;30;45396;-84
2022/07/13 12:41:27;;;;;;;;;4.33;4.33;;;;;33.87;23.85;101168.25;4799508;29;45449;-82
2022/07/13 12:44:10;;;;;;;;;5.33;5.33;;;;;33.92;23.58;101171.53;4834923;29;46227;-82
2022/07/13 12:47:02;;;;;;;;;3.00;3.00;;;;;34.11;23.73;101184.75;4875910;29;44838;-82
2022/07/13 12:49:52;;;;;;;;;3.00;3.00;;;;;33.94;23.45;101147.47;4886914;29;45296;-83
2022/07/13 12:52:22;;;;;;;;;5.33;5.33;;;;;34.27;23.60;101182.59;4883336;29;45534;-84
2022/07/13 12:54:57;;;;;;;;;6.67;6.67;;;;;34.28;23.68;101175.22;4894165;29;45421;-84
2022/07/13 12:57:43;;;;;;;;;5.00;5.00;;;;;34.23;23.52;101145.19;4893010;29;45384;-83
2022/07/13 13:06:52;;;;;;;;;3.33;3.33;;;;;34.51;23.68;101155.91;4875350;29;45244;-83
2022/07/13 13:09:22;;;;;;;;;4.67;4.67;;;;;34.58;23.13;101159.91;4887382;29;45605;-82
2022/07/13 13:11:57;;;;;;;;;4.33;4.33;;;;;34.44;23.13;101127.88;4898293;29;44815;-83
2022/07/13 13:18:18;;;;;;;;;4.00;4.00;;;;;34.49;23.13;101113.72;4884191;29;45613;-82
2022/07/13 13:20:47;;;;;;;;;6.00;5.00;;;;;34.53;23.07;101120.75;4888457;29;45733;-81
2022/07/13 13:24:05;;;;;;;;;4.00;4.00;;;;;34.72;22.78;101148.66;4893130;29;45846;-83
2022/07/13 13:26:31;;;;;;;;;4.33;4.33;;;;;34.68;23.13;101136.09;4895359;29;44806;-84
2022/07/13 13:35:58;;;;;;;;;4.00;4.00;;;;;34.61;23.03;101101.69;4847171;29;45098;-83
2022/07/13 13:38:55;;;;;;;;;4.00;4.00;;;;;34.76;22.73;101121.66;4839171;29;44834;-81
2022/07/13 13:44:42;;;;;;;;;5.00;5.00;;;;;34.97;23.12;101119.03;4832447;29;45554;-84
2022/07/13 13:47:10;;;;;;;;;3.33;3.33;;;;;35.11;22.83;101120.59;4836660;29;45430;-83
2022/07/13 13:49:42;;;;;;;;;3.33;3.33;;;;;35.22;21.86;101085.56;4823690;29;45592;-85
2022/07/13 13:52:27;;;;;;;;;4.67;4.67;;;;;36.24;21.41;101091.53;4839799;29;47712;-84
2022/07/13 13:58:42;;;;;;;;;5.00;4.00;;;;;40.46;18.43;101106.03;4765814;29;45995;-82
2022/07/13 14:01:08;;;;;;;;;3.00;3.00;;;;;41.82;17.24;101092.03;4766317;29;45698;-82
2022/07/13 14:07:08;;;;;;;;;6.33;6.33;;;;;44.18;15.77;101073.44;4760061;29;45514;-84
2022/07/13 14:09:34;;;;;;;;;5.00;3.67;;;;;44.91;14.63;101101.75;4752639;30;45591;-84
2022/07/13 14:12:31;;;;;;;;;;;;;;;;;;;;;
2022/07/13 14:15:02;;;;;;;;;4.00;4.00;;;;;45.15;13.56;101071.56;4730344;30;74489;-83
2022/07/13 14:17:30;;;;;;;;;5.00;4.00;;;;;45.27;13.82;101081.22;4747663;30;45561;-85
2022/07/13 14:20:23;;;;;;;;;4.67;4.67;;;;;46.38;12.92;101094.81;4732894;30;45436;-85
2022/07/13 14:29:38;;;;;;;;;2.67;2.67;;;;;49.76;11.72;101078.13;4745079;29;45883;-84
2022/07/13 14:32:26;;;;;;;;;5.67;5.67;;;;;50.01;11.05;101061.13;4781757;29;45475;-84
2022/07/13 14:35:06;;;;;;;;;2.00;2.00;;;;;50.07;9.26;101062.16;4772013;29;45383;-83
2022/07/13 14:37:37;;;;;;;;;4.00;4.00;;;;;49.60;11.18;101030.59;4785729;29;45752;-83
2022/07/13 14:40:37;;;;;;;;;3.00;3.00;;;;;49.30;10.78;101065.13;4804890;29;45618;-82